sensor_id;sensor_type;location;lat;lon;timestamp;pressure;altitude;pressure_sealevel;temperature;humidity
72096;BME280;59968;51.084;16.748;2024-02-04T00:01:50;100251.98;;;10.69;80.05
72096;BME280;59968;51.084;16.748;2024-02-04T00:04:19;100249.14;;;10.67;80.30
72096;BME280;59968;51.084;16.748;2024-02-04T00:06:48;100249.52;;;10.63;80.12
72096;BME280;59968;51.084;16.748;2024-02-04T00:09:17;100259.46;;;10.65;80.26
72096;BME280;59968;51.084;16.748;2024-02-04T00:11:47;100269.34;;;10.62;80.54
72096;BME280;59968;51.084;16.748;2024-02-04T00:14:16;100267.27;;;10.58;80.89
72096;BME280;59968;51.084;16.748;2024-02-04T00:16:44;100264.81;;;10.54;80.93
72096;BME280;59968;51.084;16.748;2024-02-04T00:19:16;100275.64;;;10.50;80.88
72096;BME280;59968;51.084;16.748;2024-02-04T00:21:46;100273.23;;;10.43;80.95
72096;BME280;59968;51.084;16.748;2024-02-04T00:24:15;100266.39;;;10.34;80.82
72096;BME280;59968;51.084;16.748;2024-02-04T00:26:44;100280.62;;;10.24;80.93
72096;BME280;59968;51.084;16.748;2024-02-04T00:29:12;100273.69;;;10.13;81.00
72096;BME280;59968;51.084;16.748;2024-02-04T00:31:42;100277.29;;;10.06;80.80
72096;BME280;59968;51.084;16.748;2024-02-04T00:34:11;100282.24;;;9.99;81.14
72096;BME280;59968;51.084;16.748;2024-02-04T00:36:40;100278.10;;;9.95;81.24
72096;BME280;59968;51.084;16.748;2024-02-04T00:39:08;100280.85;;;9.87;81.47
72096;BME280;59968;51.084;16.748;2024-02-04T00:41:37;100275.16;;;9.79;81.60
72096;BME280;59968;51.084;16.748;2024-02-04T00:44:06;100273.05;;;9.75;81.62
72096;BME280;59968;51.084;16.748;2024-02-04T00:46:34;100279.76;;;9.66;81.87
72096;BME280;59968;51.084;16.748;2024-02-04T00:49:03;100281.98;;;9.57;81.23
72096;BME280;59968;51.084;16.748;2024-02-04T00:51:33;100270.48;;;9.58;81.07
72096;BME280;59968;51.084;16.748;2024-02-04T00:54:01;100265.48;;;9.55;81.08
72096;BME280;59968;51.084;16.748;2024-02-04T00:56:31;100274.11;;;9.56;81.06
72096;BME280;59968;51.084;16.748;2024-02-04T00:59:01;100281.77;;;9.53;80.96
72096;BME280;59968;51.084;16.748;2024-02-04T01:01:30;100281.59;;;9.54;80.76
72096;BME280;59968;51.084;16.748;2024-02-04T01:03:59;100291.21;;;9.52;80.92
72096;BME280;59968;51.084;16.748;2024-02-04T01:06:28;100288.02;;;9.52;81.06
72096;BME280;59968;51.084;16.748;2024-02-04T01:09:07;100288.45;;;9.50;81.47
72096;BME280;59968;51.084;16.748;2024-02-04T01:11:37;100292.19;;;9.47;81.81
72096;BME280;59968;51.084;16.748;2024-02-04T01:14:05;100287.58;;;9.62;81.52
72096;BME280;59968;51.084;16.748;2024-02-04T01:16:34;100285.49;;;9.68;81.16
72096;BME280;59968;51.084;16.748;2024-02-04T01:19:03;100287.81;;;9.70;80.99
72096;BME280;59968;51.084;16.748;2024-02-04T01:21:32;100287.73;;;9.69;81.16
72096;BME280;59968;51.084;16.748;2024-02-04T01:24:01;100281.03;;;9.65;81.19
72096;BME280;59968;51.084;16.748;2024-02-04T01:26:31;100273.65;;;9.46;82.27
72096;BME280;59968;51.084;16.748;2024-02-04T01:29:00;100266.46;;;9.44;82.43
72096;BME280;59968;51.084;16.748;2024-02-04T01:31:30;100263.71;;;9.44;82.34
72096;BME280;59968;51.084;16.748;2024-02-04T01:34:00;100259.10;;;9.44;82.41
72096;BME280;59968;51.084;16.748;2024-02-04T01:36:29;100256.25;;;9.46;82.42
72096;BME280;59968;51.084;16.748;2024-02-04T01:38:58;100254.54;;;9.47;82.62
72096;BME280;59968;51.084;16.748;2024-02-04T01:41:27;100250.65;;;9.48;82.41
72096;BME280;59968;51.084;16.748;2024-02-04T01:43:56;100255.85;;;9.51;82.38
72096;BME280;59968;51.084;16.748;2024-02-04T01:46:24;100256.16;;;9.52;82.18
72096;BME280;59968;51.084;16.748;2024-02-04T01:48:53;100255.51;;;9.55;82.11
72096;BME280;59968;51.084;16.748;2024-02-04T01:51:23;100251.02;;;9.58;81.91
72096;BME280;59968;51.084;16.748;2024-02-04T01:53:52;100243.30;;;9.59;81.88
72096;BME280;59968;51.084;16.748;2024-02-04T01:56:21;100239.86;;;9.60;81.67
72096;BME280;59968;51.084;16.748;2024-02-04T01:58:49;100240.41;;;9.63;81.59
72096;BME280;59968;51.084;16.748;2024-02-04T02:01:19;100242.59;;;9.65;81.47
72096;BME280;59968;51.084;16.748;2024-02-04T02:03:49;100233.27;;;9.66;81.27
72096;BME280;59968;51.084;16.748;2024-02-04T02:06:19;100236.15;;;9.68;81.13
72096;BME280;59968;51.084;16.748;2024-02-04T02:08:49;100234.05;;;9.67;81.08
72096;BME280;59968;51.084;16.748;2024-02-04T02:11:21;100232.18;;;9.68;81.10
72096;BME280;59968;51.084;16.748;2024-02-04T02:13:57;100240.11;;;9.69;81.28
72096;BME280;59968;51.084;16.748;2024-02-04T02:16:32;100239.86;;;9.73;81.30
72096;BME280;59968;51.084;16.748;2024-02-04T02:22:02;100251.45;;;9.74;81.69
72096;BME280;59968;51.084;16.748;2024-02-04T02:24:34;100253.17;;;9.74;81.65
72096;BME280;59968;51.084;16.748;2024-02-04T02:27:04;100252.43;;;9.73;80.74
72096;BME280;59968;51.084;16.748;2024-02-04T02:29:34;100244.81;;;9.73;79.31
72096;BME280;59968;51.084;16.748;2024-02-04T02:32:04;100241.43;;;9.73;78.69
72096;BME280;59968;51.084;16.748;2024-02-04T02:34:33;100243.59;;;9.75;79.89
72096;BME280;59968;51.084;16.748;2024-02-04T02:40:01;100255.44;;;9.53;80.35
72096;BME280;59968;51.084;16.748;2024-02-04T02:42:33;100253.34;;;9.42;80.15
72096;BME280;59968;51.084;16.748;2024-02-04T02:45:03;100253.08;;;9.34;80.08
72096;BME280;59968;51.084;16.748;2024-02-04T02:47:32;100244.25;;;9.27;80.24
72096;BME280;59968;51.084;16.748;2024-02-04T02:50:02;100242.95;;;9.18;80.73
72096;BME280;59968;51.084;16.748;2024-02-04T02:52:30;100235.52;;;9.10;81.05
72096;BME280;59968;51.084;16.748;2024-02-04T02:54:59;100240.39;;;9.08;81.54
72096;BME280;59968;51.084;16.748;2024-02-04T02:57:27;100241.41;;;9.07;81.71
72096;BME280;59968;51.084;16.748;2024-02-04T02:59:56;100238.35;;;9.07;81.58
72096;BME280;59968;51.084;16.748;2024-02-04T03:02:24;100242.59;;;9.09;81.64
72096;BME280;59968;51.084;16.748;2024-02-04T03:04:53;100233.55;;;9.12;81.39
72096;BME280;59968;51.084;16.748;2024-02-04T03:07:21;100238.80;;;9.15;81.10
72096;BME280;59968;51.084;16.748;2024-02-04T03:09:52;100231.58;;;9.16;80.49
72096;BME280;59968;51.084;16.748;2024-02-04T03:12:21;100220.77;;;9.17;79.69
72096;BME280;59968;51.084;16.748;2024-02-04T03:14:49;100224.52;;;9.19;79.62
72096;BME280;59968;51.084;16.748;2024-02-04T03:17:18;100221.92;;;9.18;79.23
72096;BME280;59968;51.084;16.748;2024-02-04T03:19:51;100219.64;;;9.18;79.24
72096;BME280;59968;51.084;16.748;2024-02-04T03:22:21;100223.65;;;9.13;78.31
72096;BME280;59968;51.084;16.748;2024-02-04T03:24:50;100232.52;;;9.12;77.46
72096;BME280;59968;51.084;16.748;2024-02-04T03:27:18;100227.50;;;9.12;77.16
72096;BME280;59968;51.084;16.748;2024-02-04T03:29:47;100224.26;;;9.08;76.36
72096;BME280;59968;51.084;16.748;2024-02-04T03:32:16;100221.35;;;9.06;75.57
72096;BME280;59968;51.084;16.748;2024-02-04T03:34:44;100218.88;;;9.04;74.03
72096;BME280;59968;51.084;16.748;2024-02-04T03:37:13;100216.29;;;9.04;73.54
72096;BME280;59968;51.084;16.748;2024-02-04T03:39:42;100224.83;;;9.01;73.20
72096;BME280;59968;51.084;16.748;2024-02-04T03:42:11;100224.84;;;9.00;73.27
72096;BME280;59968;51.084;16.748;2024-02-04T03:44:39;100227.55;;;8.96;73.53
72096;BME280;59968;51.084;16.748;2024-02-04T03:47:07;100225.20;;;8.93;74.05
72096;BME280;59968;51.084;16.748;2024-02-04T03:49:36;100230.73;;;8.90;74.67
72096;BME280;59968;51.084;16.748;2024-02-04T03:52:05;100231.23;;;8.87;75.16
72096;BME280;59968;51.084;16.748;2024-02-04T03:54:34;100242.92;;;8.86;75.61
72096;BME280;59968;51.084;16.748;2024-02-04T03:57:02;100241.86;;;8.86;76.11
72096;BME280;59968;51.084;16.748;2024-02-04T03:59:31;100236.71;;;8.89;76.63
72096;BME280;59968;51.084;16.748;2024-02-04T04:01:59;100236.23;;;8.90;77.28
72096;BME280;59968;51.084;16.748;2024-02-04T04:04:28;100236.02;;;8.93;77.71
72096;BME280;59968;51.084;16.748;2024-02-04T04:06:57;100241.71;;;8.96;77.85
72096;BME280;59968;51.084;16.748;2024-02-04T04:09:26;100249.39;;;8.95;77.64
72096;BME280;59968;51.084;16.748;2024-02-04T04:11:54;100254.95;;;8.98;77.55
72096;BME280;59968;51.084;16.748;2024-02-04T04:14:42;100250.14;;;8.98;77.10
72096;BME280;59968;51.084;16.748;2024-02-04T04:17:11;100252.77;;;8.97;77.07
72096;BME280;59968;51.084;16.748;2024-02-04T04:19:39;100253.27;;;8.97;76.84
72096;BME280;59968;51.084;16.748;2024-02-04T04:22:09;100250.58;;;8.95;76.52
72096;BME280;59968;51.084;16.748;2024-02-04T04:24:38;100254.15;;;8.94;76.46
72096;BME280;59968;51.084;16.748;2024-02-04T04:27:06;100254.63;;;8.92;76.37
72096;BME280;59968;51.084;16.748;2024-02-04T04:29:35;100259.97;;;8.89;76.28
72096;BME280;59968;51.084;16.748;2024-02-04T04:32:04;100260.18;;;8.87;76.23
72096;BME280;59968;51.084;16.748;2024-02-04T04:34:33;100256.70;;;8.83;76.00
72096;BME280;59968;51.084;16.748;2024-02-04T04:37:01;100255.45;;;8.79;75.92
72096;BME280;59968;51.084;16.748;2024-02-04T04:39:30;100252.27;;;8.74;75.92
72096;BME280;59968;51.084;16.748;2024-02-04T04:41:58;100251.98;;;8.68;75.89
72096;BME280;59968;51.084;16.748;2024-02-04T04:44:27;100261.67;;;8.63;75.93
72096;BME280;59968;51.084;16.748;2024-02-04T04:46:55;100264.48;;;8.60;75.94
72096;BME280;59968;51.084;16.748;2024-02-04T04:49:24;100259.85;;;8.53;75.84
72096;BME280;59968;51.084;16.748;2024-02-04T04:51:52;100255.26;;;8.52;75.83
72096;BME280;59968;51.084;16.748;2024-02-04T04:54:21;100257.23;;;8.46;75.80
72096;BME280;59968;51.084;16.748;2024-02-04T04:56:50;100253.35;;;8.41;75.78
72096;BME280;59968;51.084;16.748;2024-02-04T04:59:18;100256.78;;;8.37;75.79
72096;BME280;59968;51.084;16.748;2024-02-04T05:01:48;100263.53;;;8.34;75.64
72096;BME280;59968;51.084;16.748;2024-02-04T05:04:17;100261.20;;;8.33;75.46
72096;BME280;59968;51.084;16.748;2024-02-04T05:06:49;100261.48;;;8.32;75.70
72096;BME280;59968;51.084;16.748;2024-02-04T05:09:18;100255.05;;;8.32;75.59
72096;BME280;59968;51.084;16.748;2024-02-04T05:11:46;100258.55;;;8.30;75.48
72096;BME280;59968;51.084;16.748;2024-02-04T05:14:15;100250.23;;;8.29;75.50
72096;BME280;59968;51.084;16.748;2024-02-04T05:16:43;100250.95;;;8.29;75.60
72096;BME280;59968;51.084;16.748;2024-02-04T05:19:12;100249.82;;;8.25;75.46
72096;BME280;59968;51.084;16.748;2024-02-04T05:21:41;100258.58;;;8.25;75.37
72096;BME280;59968;51.084;16.748;2024-02-04T05:24:10;100254.39;;;8.29;75.34
72096;BME280;59968;51.084;16.748;2024-02-04T05:26:38;100255.50;;;8.28;74.94
72096;BME280;59968;51.084;16.748;2024-02-04T05:29:07;100255.30;;;8.24;74.96
72096;BME280;59968;51.084;16.748;2024-02-04T05:31:42;100258.24;;;8.16;74.85
72096;BME280;59968;51.084;16.748;2024-02-04T05:34:12;100264.11;;;8.15;74.83
72096;BME280;59968;51.084;16.748;2024-02-04T05:36:41;100265.16;;;8.10;74.55
72096;BME280;59968;51.084;16.748;2024-02-04T05:39:14;100273.39;;;8.03;74.64
72096;BME280;59968;51.084;16.748;2024-02-04T05:41:44;100283.29;;;8.04;74.49
72096;BME280;59968;51.084;16.748;2024-02-04T05:44:12;100277.80;;;7.99;74.42
72096;BME280;59968;51.084;16.748;2024-02-04T05:46:41;100277.61;;;7.98;74.53
72096;BME280;59968;51.084;16.748;2024-02-04T05:49:09;100277.77;;;8.02;74.42
72096;BME280;59968;51.084;16.748;2024-02-04T05:51:39;100279.80;;;8.03;74.38
72096;BME280;59968;51.084;16.748;2024-02-04T05:54:08;100281.45;;;7.94;74.43
72096;BME280;59968;51.084;16.748;2024-02-04T05:56:37;100279.83;;;7.95;74.50
72096;BME280;59968;51.084;16.748;2024-02-04T05:59:05;100279.79;;;7.91;74.41
72096;BME280;59968;51.084;16.748;2024-02-04T06:01:33;100277.08;;;7.96;74.04
72096;BME280;59968;51.084;16.748;2024-02-04T06:04:03;100275.39;;;7.98;73.61
72096;BME280;59968;51.084;16.748;2024-02-04T06:06:32;100276.17;;;8.00;73.57
72096;BME280;59968;51.084;16.748;2024-02-04T06:09:01;100269.33;;;7.99;73.48
72096;BME280;59968;51.084;16.748;2024-02-04T06:11:31;100267.42;;;7.95;73.44
72096;BME280;59968;51.084;16.748;2024-02-04T06:14:00;100269.25;;;7.85;73.54
72096;BME280;59968;51.084;16.748;2024-02-04T06:16:31;100269.10;;;7.81;73.57
72096;BME280;59968;51.084;16.748;2024-02-04T06:19:02;100264.77;;;7.80;73.51
72096;BME280;59968;51.084;16.748;2024-02-04T06:21:31;100266.06;;;7.83;73.37
72096;BME280;59968;51.084;16.748;2024-02-04T06:23:59;100263.08;;;7.84;73.16
72096;BME280;59968;51.084;16.748;2024-02-04T06:26:28;100267.03;;;7.83;73.10
72096;BME280;59968;51.084;16.748;2024-02-04T06:28:57;100268.03;;;7.82;73.02
72096;BME280;59968;51.084;16.748;2024-02-04T06:31:25;100278.70;;;7.80;72.92
72096;BME280;59968;51.084;16.748;2024-02-04T06:33:54;100280.25;;;7.79;73.04
72096;BME280;59968;51.084;16.748;2024-02-04T06:36:24;100279.75;;;7.77;72.99
72096;BME280;59968;51.084;16.748;2024-02-04T06:38:53;100290.27;;;7.60;73.55
72096;BME280;59968;51.084;16.748;2024-02-04T06:41:22;100289.80;;;7.58;73.69
72096;BME280;59968;51.084;16.748;2024-02-04T06:43:51;100284.51;;;7.66;73.29
72096;BME280;59968;51.084;16.748;2024-02-04T06:46:26;100289.52;;;7.68;73.37
72096;BME280;59968;51.084;16.748;2024-02-04T06:48:55;100283.48;;;7.68;73.40
72096;BME280;59968;51.084;16.748;2024-02-04T06:51:24;100280.59;;;7.67;73.38
72096;BME280;59968;51.084;16.748;2024-02-04T06:53:53;100275.68;;;7.68;73.33
72096;BME280;59968;51.084;16.748;2024-02-04T06:56:22;100278.95;;;7.68;73.37
72096;BME280;59968;51.084;16.748;2024-02-04T06:58:51;100282.92;;;7.70;73.22
72096;BME280;59968;51.084;16.748;2024-02-04T07:01:20;100275.89;;;7.70;73.33
72096;BME280;59968;51.084;16.748;2024-02-04T07:03:48;100276.08;;;7.70;73.40
72096;BME280;59968;51.084;16.748;2024-02-04T07:06:18;100278.65;;;7.72;73.49
72096;BME280;59968;51.084;16.748;2024-02-04T07:08:47;100275.77;;;7.74;73.59
72096;BME280;59968;51.084;16.748;2024-02-04T07:11:16;100275.64;;;7.78;73.55
72096;BME280;59968;51.084;16.748;2024-02-04T07:13:45;100270.98;;;7.80;73.72
72096;BME280;59968;51.084;16.748;2024-02-04T07:16:13;100274.92;;;7.85;73.69
72096;BME280;59968;51.084;16.748;2024-02-04T07:18:42;100270.88;;;7.91;73.69
72096;BME280;59968;51.084;16.748;2024-02-04T07:21:11;100263.95;;;7.95;73.60
72096;BME280;59968;51.084;16.748;2024-02-04T07:23:40;100265.31;;;8.01;73.46
72096;BME280;59968;51.084;16.748;2024-02-04T07:26:09;100264.88;;;8.05;73.41
72096;BME280;59968;51.084;16.748;2024-02-04T07:28:37;100269.17;;;8.08;73.30
72096;BME280;59968;51.084;16.748;2024-02-04T07:31:07;100266.51;;;8.11;73.31
72096;BME280;59968;51.084;16.748;2024-02-04T07:33:35;100267.62;;;8.11;73.19
72096;BME280;59968;51.084;16.748;2024-02-04T07:36:05;100266.99;;;8.14;73.08
72096;BME280;59968;51.084;16.748;2024-02-04T07:38:34;100267.35;;;8.16;72.88
72096;BME280;59968;51.084;16.748;2024-02-04T07:41:04;100264.33;;;8.20;72.73
72096;BME280;59968;51.084;16.748;2024-02-04T07:43:33;100266.56;;;8.25;72.43
72096;BME280;59968;51.084;16.748;2024-02-04T07:46:02;100266.35;;;8.30;72.33
72096;BME280;59968;51.084;16.748;2024-02-04T07:48:32;100262.27;;;8.35;72.15
72096;BME280;59968;51.084;16.748;2024-02-04T07:51:03;100259.85;;;8.40;71.83
72096;BME280;59968;51.084;16.748;2024-02-04T07:53:31;100254.95;;;8.42;71.42
72096;BME280;59968;51.084;16.748;2024-02-04T07:56:00;100248.35;;;8.44;70.99
72096;BME280;59968;51.084;16.748;2024-02-04T07:58:31;100253.23;;;8.45;70.50
72096;BME280;59968;51.084;16.748;2024-02-04T08:01:00;100259.91;;;8.44;69.65
72096;BME280;59968;51.084;16.748;2024-02-04T08:03:31;100269.72;;;8.53;69.35
72096;BME280;59968;51.084;16.748;2024-02-04T08:06:01;100270.36;;;8.56;68.86
72096;BME280;59968;51.084;16.748;2024-02-04T08:08:32;100277.39;;;8.61;68.69
72096;BME280;59968;51.084;16.748;2024-02-04T08:11:02;100270.62;;;8.66;68.74
72096;BME280;59968;51.084;16.748;2024-02-04T08:13:33;100269.44;;;8.72;69.06
72096;BME280;59968;51.084;16.748;2024-02-04T08:16:02;100265.73;;;8.77;68.95
72096;BME280;59968;51.084;16.748;2024-02-04T08:18:30;100251.71;;;8.82;68.99
72096;BME280;59968;51.084;16.748;2024-02-04T08:20:59;100246.86;;;8.83;68.89
72096;BME280;59968;51.084;16.748;2024-02-04T08:23:28;100251.31;;;8.91;69.14
72096;BME280;59968;51.084;16.748;2024-02-04T08:25:56;100245.66;;;8.96;69.10
72096;BME280;59968;51.084;16.748;2024-02-04T08:28:26;100248.15;;;9.01;68.53
72096;BME280;59968;51.084;16.748;2024-02-04T08:30:55;100248.39;;;9.05;69.06
72096;BME280;59968;51.084;16.748;2024-02-04T08:33:23;100248.95;;;9.05;69.36
72096;BME280;59968;51.084;16.748;2024-02-04T08:35:52;100246.30;;;9.09;69.60
72096;BME280;59968;51.084;16.748;2024-02-04T08:38:21;100242.85;;;9.14;69.55
72096;BME280;59968;51.084;16.748;2024-02-04T08:40:50;100243.46;;;9.25;69.09
72096;BME280;59968;51.084;16.748;2024-02-04T08:43:18;100244.55;;;9.30;68.60
72096;BME280;59968;51.084;16.748;2024-02-04T08:45:47;100242.71;;;9.33;68.53
72096;BME280;59968;51.084;16.748;2024-02-04T08:48:16;100240.18;;;9.38;68.68
72096;BME280;59968;51.084;16.748;2024-02-04T08:50:45;100241.27;;;9.39;68.25
72096;BME280;59968;51.084;16.748;2024-02-04T08:53:14;100241.45;;;9.41;67.09
72096;BME280;59968;51.084;16.748;2024-02-04T08:55:43;100244.59;;;9.44;66.64
72096;BME280;59968;51.084;16.748;2024-02-04T08:58:12;100241.94;;;9.49;67.03
72096;BME280;59968;51.084;16.748;2024-02-04T09:00:41;100242.15;;;9.54;67.30
72096;BME280;59968;51.084;16.748;2024-02-04T09:03:11;100240.76;;;9.57;66.96
72096;BME280;59968;51.084;16.748;2024-02-04T09:05:41;100232.07;;;9.60;66.91
72096;BME280;59968;51.084;16.748;2024-02-04T09:08:13;100230.55;;;9.64;67.14
72096;BME280;59968;51.084;16.748;2024-02-04T09:10:42;100227.95;;;9.69;66.90
72096;BME280;59968;51.084;16.748;2024-02-04T09:13:10;100214.64;;;9.67;66.23
72096;BME280;59968;51.084;16.748;2024-02-04T09:15:40;100209.92;;;9.70;66.52
72096;BME280;59968;51.084;16.748;2024-02-04T09:18:09;100208.45;;;9.74;66.77
72096;BME280;59968;51.084;16.748;2024-02-04T09:20:38;100206.84;;;9.77;67.12
72096;BME280;59968;51.084;16.748;2024-02-04T09:23:08;100203.73;;;9.81;67.10
72096;BME280;59968;51.084;16.748;2024-02-04T09:25:36;100202.80;;;9.85;67.32
72096;BME280;59968;51.084;16.748;2024-02-04T09:28:05;100198.61;;;9.88;67.50
72096;BME280;59968;51.084;16.748;2024-02-04T09:30:33;100195.10;;;9.93;67.70
72096;BME280;59968;51.084;16.748;2024-02-04T09:33:03;100191.98;;;9.96;67.19
72096;BME280;59968;51.084;16.748;2024-02-04T09:35:32;100190.25;;;10.00;67.72
72096;BME280;59968;51.084;16.748;2024-02-04T09:38:02;100196.00;;;10.07;67.87
72096;BME280;59968;51.084;16.748;2024-02-04T09:40:39;100197.27;;;10.12;67.94
72096;BME280;59968;51.084;16.748;2024-02-04T09:43:09;100196.08;;;10.17;67.71
72096;BME280;59968;51.084;16.748;2024-02-04T09:45:39;100196.17;;;10.21;67.73
72096;BME280;59968;51.084;16.748;2024-02-04T09:48:08;100166.86;;;10.02;67.75
72096;BME280;59968;51.084;16.748;2024-02-04T09:50:37;100179.81;;;10.24;67.62
72096;BME280;59968;51.084;16.748;2024-02-04T09:53:07;100173.84;;;10.24;67.62
72096;BME280;59968;51.084;16.748;2024-02-04T09:55:39;100167.30;;;10.25;67.75
72096;BME280;59968;51.084;16.748;2024-02-04T09:58:09;100167.25;;;10.29;67.99
72096;BME280;59968;51.084;16.748;2024-02-04T10:00:39;100160.09;;;10.32;68.04
72096;BME280;59968;51.084;16.748;2024-02-04T10:03:09;100158.65;;;10.33;68.30
72096;BME280;59968;51.084;16.748;2024-02-04T10:05:37;100160.44;;;10.37;69.14
72096;BME280;59968;51.084;16.748;2024-02-04T10:08:06;100146.48;;;10.40;69.44
72096;BME280;59968;51.084;16.748;2024-02-04T10:10:37;100152.06;;;10.45;69.85
72096;BME280;59968;51.084;16.748;2024-02-04T10:13:09;100152.66;;;10.45;69.99
72096;BME280;59968;51.084;16.748;2024-02-04T10:15:38;100156.40;;;10.45;70.32
72096;BME280;59968;51.084;16.748;2024-02-04T10:18:07;100157.05;;;10.46;70.33
72096;BME280;59968;51.084;16.748;2024-02-04T10:20:37;100152.53;;;10.44;70.51
72096;BME280;59968;51.084;16.748;2024-02-04T10:23:05;100156.96;;;10.37;70.52
72096;BME280;59968;51.084;16.748;2024-02-04T10:25:34;100164.74;;;10.30;71.11
72096;BME280;59968;51.084;16.748;2024-02-04T10:28:06;100152.36;;;10.24;71.65
72096;BME280;59968;51.084;16.748;2024-02-04T10:30:38;100133.32;;;10.25;72.14
72096;BME280;59968;51.084;16.748;2024-02-04T10:33:08;100121.52;;;10.32;72.59
72096;BME280;59968;51.084;16.748;2024-02-04T10:35:37;100115.81;;;10.32;72.68
72096;BME280;59968;51.084;16.748;2024-02-04T10:38:07;100110.45;;;10.35;72.96
72096;BME280;59968;51.084;16.748;2024-02-04T10:40:36;100101.56;;;10.38;73.11
72096;BME280;59968;51.084;16.748;2024-02-04T10:43:06;100098.77;;;10.38;73.02
72096;BME280;59968;51.084;16.748;2024-02-04T10:45:38;100091.84;;;10.39;73.02
72096;BME280;59968;51.084;16.748;2024-02-04T10:48:08;100088.86;;;10.40;73.24
72096;BME280;59968;51.084;16.748;2024-02-04T10:50:40;100071.83;;;10.38;73.31
72096;BME280;59968;51.084;16.748;2024-02-04T10:53:14;100087.06;;;10.48;73.33
72096;BME280;59968;51.084;16.748;2024-02-04T10:55:46;100082.16;;;10.52;73.34
72096;BME280;59968;51.084;16.748;2024-02-04T10:58:15;100076.88;;;10.54;73.14
72096;BME280;59968;51.084;16.748;2024-02-04T11:00:46;100074.21;;;10.59;73.30
72096;BME280;59968;51.084;16.748;2024-02-04T11:03:15;100078.66;;;10.66;73.49
72096;BME280;59968;51.084;16.748;2024-02-04T11:05:49;100073.45;;;10.70;73.27
72096;BME280;59968;51.084;16.748;2024-02-04T11:08:22;100076.05;;;10.75;73.20
72096;BME280;59968;51.084;16.748;2024-02-04T11:10:51;100068.89;;;10.80;73.17
72096;BME280;59968;51.084;16.748;2024-02-04T11:13:22;100063.63;;;10.84;73.13
72096;BME280;59968;51.084;16.748;2024-02-04T11:15:53;100049.52;;;10.88;72.84
72096;BME280;59968;51.084;16.748;2024-02-04T11:21:44;100033.20;;;11.01;72.60
72096;BME280;59968;51.084;16.748;2024-02-04T11:24:52;100036.33;;;11.12;72.36
72096;BME280;59968;51.084;16.748;2024-02-04T11:27:25;100034.77;;;11.16;71.93
72096;BME280;59968;51.084;16.748;2024-02-04T11:29:55;100030.71;;;11.19;72.05
72096;BME280;59968;51.084;16.748;2024-02-04T11:32:24;100032.75;;;11.23;71.60
72096;BME280;59968;51.084;16.748;2024-02-04T11:34:54;100030.46;;;11.28;71.66
72096;BME280;59968;51.084;16.748;2024-02-04T11:37:24;100028.52;;;11.33;71.27
72096;BME280;59968;51.084;16.748;2024-02-04T11:39:56;100030.90;;;11.37;71.06
72096;BME280;59968;51.084;16.748;2024-02-04T11:42:31;100026.15;;;11.41;70.26
72096;BME280;59968;51.084;16.748;2024-02-04T11:45:08;100020.84;;;11.40;69.26
72096;BME280;59968;51.084;16.748;2024-02-04T11:47:38;100012.45;;;11.43;69.36
72096;BME280;59968;51.084;16.748;2024-02-04T11:50:09;100006.81;;;11.48;69.17
72096;BME280;59968;51.084;16.748;2024-02-04T11:52:40;99999.21;;;11.52;69.10
72096;BME280;59968;51.084;16.748;2024-02-04T11:55:14;99995.70;;;11.56;68.89
72096;BME280;59968;51.084;16.748;2024-02-04T11:57:44;99987.18;;;11.56;68.63
72096;BME280;59968;51.084;16.748;2024-02-04T12:00:16;99993.49;;;11.58;68.83
72096;BME280;59968;51.084;16.748;2024-02-04T12:02:45;99991.21;;;11.61;68.85
72096;BME280;59968;51.084;16.748;2024-02-04T12:05:14;99994.01;;;11.61;68.83
72096;BME280;59968;51.084;16.748;2024-02-04T12:07:46;99982.64;;;11.63;68.92
72096;BME280;59968;51.084;16.748;2024-02-04T12:10:17;99979.14;;;11.63;68.77
72096;BME280;59968;51.084;16.748;2024-02-04T12:12:46;99973.11;;;11.62;69.05
72096;BME280;59968;51.084;16.748;2024-02-04T12:15:16;99961.96;;;11.61;69.41
72096;BME280;59968;51.084;16.748;2024-02-04T12:17:46;99961.48;;;11.62;69.35
72096;BME280;59968;51.084;16.748;2024-02-04T12:20:14;99962.31;;;11.63;69.12
72096;BME280;59968;51.084;16.748;2024-02-04T12:22:46;99946.70;;;11.58;68.59
72096;BME280;59968;51.084;16.748;2024-02-04T12:25:22;99946.17;;;11.64;68.76
72096;BME280;59968;51.084;16.748;2024-02-04T12:27:54;99940.29;;;11.63;68.94
72096;BME280;59968;51.084;16.748;2024-02-04T12:30:23;99942.02;;;11.64;69.12
72096;BME280;59968;51.084;16.748;2024-02-04T12:33:03;99929.26;;;11.64;69.16
72096;BME280;59968;51.084;16.748;2024-02-04T12:35:36;99921.83;;;11.63;68.95
72096;BME280;59968;51.084;16.748;2024-02-04T12:38:06;99912.64;;;11.67;68.81
72096;BME280;59968;51.084;16.748;2024-02-04T12:40:37;99909.89;;;11.70;68.90
72096;BME280;59968;51.084;16.748;2024-02-04T12:43:06;99904.60;;;11.68;68.55
72096;BME280;59968;51.084;16.748;2024-02-04T12:45:35;99898.46;;;11.68;68.48
72096;BME280;59968;51.084;16.748;2024-02-04T12:48:04;99898.90;;;11.69;68.16
72096;BME280;59968;51.084;16.748;2024-02-04T12:50:37;99897.05;;;11.71;67.88
72096;BME280;59968;51.084;16.748;2024-02-04T12:53:08;99893.13;;;11.72;67.69
72096;BME280;59968;51.084;16.748;2024-02-04T12:55:40;99888.70;;;11.73;67.80
72096;BME280;59968;51.084;16.748;2024-02-04T12:58:10;99889.73;;;11.67;67.66
72096;BME280;59968;51.084;16.748;2024-02-04T13:00:59;99889.53;;;11.64;67.94
72096;BME280;59968;51.084;16.748;2024-02-04T13:03:30;99888.10;;;11.63;68.00
72096;BME280;59968;51.084;16.748;2024-02-04T13:05:59;99888.81;;;11.62;68.28
72096;BME280;59968;51.084;16.748;2024-02-04T13:08:28;99884.23;;;11.59;68.15
72096;BME280;59968;51.084;16.748;2024-02-04T13:10:57;99881.30;;;11.56;67.94